createdAt,value
2022-11-27T00:01:42.891Z,8.40
2022-11-27T00:04:12.018Z,8.07
2022-11-27T00:06:40.696Z,8.38
2022-11-27T00:09:11.861Z,7.45
2022-11-27T00:11:41.935Z,8.18
2022-11-27T00:14:12.174Z,7.55
2022-11-27T00:16:39.005Z,7.00
2022-11-27T00:19:06.077Z,8.45
2022-11-27T00:21:35.608Z,7.53
2022-11-27T00:29:52.448Z,6.82
2022-11-27T00:32:19.210Z,7.93
2022-11-27T00:34:46.028Z,8.00
2022-11-27T00:37:14.860Z,7.25
2022-11-27T00:39:41.606Z,6.75
2022-11-27T00:42:08.336Z,6.57
2022-11-27T00:44:35.137Z,7.72
2022-11-27T00:47:02.204Z,7.13
2022-11-27T00:49:29.102Z,6.68
2022-11-27T00:51:56.104Z,8.65
2022-11-27T00:54:23.065Z,6.82
2022-11-27T00:56:49.806Z,7.25
2022-11-27T00:59:16.718Z,7.15
2022-11-27T01:01:44.107Z,8.77
2022-11-27T01:04:15.618Z,6.88
2022-11-27T01:06:43.486Z,6.90
2022-11-27T01:09:12.187Z,7.05
2022-11-27T01:14:24.574Z,7.15
2022-11-27T01:16:51.304Z,7.65
2022-11-27T01:19:18.149Z,6.18
2022-11-27T01:21:45.911Z,7.50
2022-11-27T01:24:15.181Z,6.70
2022-11-27T01:26:42.445Z,7.85
2022-11-27T01:29:09.461Z,6.60
2022-11-27T01:31:36.703Z,6.85
2022-11-27T01:34:11.696Z,6.90
2022-11-27T01:36:38.441Z,7.20
2022-11-27T01:39:05.491Z,5.55
2022-11-27T01:41:39.872Z,6.78
2022-11-27T01:44:43.811Z,5.47
2022-11-27T01:47:18.030Z,4.97
2022-11-27T01:49:50.677Z,5.00
2022-11-27T01:52:29.849Z,3.60
2022-11-27T01:54:59.595Z,3.03
2022-11-27T01:57:38.959Z,3.25
2022-11-27T02:00:08.145Z,4.25
2022-11-27T02:02:40.033Z,2.65
2022-11-27T02:05:28.651Z,3.97
2022-11-27T02:07:59.419Z,4.63
2022-11-27T02:10:52.173Z,3.60
2022-11-27T02:13:33.579Z,3.33
2022-11-27T02:16:18.456Z,2.95
2022-11-27T02:19:07.397Z,2.60
2022-11-27T02:21:42.249Z,3.15
2022-11-27T02:24:33.294Z,2.47
2022-11-27T02:27:47.603Z,2.75
2022-11-27T02:30:14.658Z,2.40
2022-11-27T02:32:56.174Z,2.35
2022-11-27T02:35:35.341Z,2.85
2022-11-27T02:38:10.689Z,3.42
2022-11-27T02:40:44.828Z,2.10
2022-11-27T02:43:17.103Z,2.28
2022-11-27T02:46:05.513Z,2.45
2022-11-27T02:48:45.751Z,3.25
2022-11-27T02:51:14.637Z,3.20
2022-11-27T02:54:01.046Z,2.38
2022-11-27T02:56:30.072Z,2.30
2022-11-27T02:59:01.221Z,2.78
2022-11-27T03:01:32.486Z,1.67
2022-11-27T03:04:02.842Z,1.73
2022-11-27T03:06:36.688Z,1.42
2022-11-27T03:09:08.713Z,1.55
2022-11-27T03:14:24.789Z,1.20
2022-11-27T03:17:06.577Z,1.25
2022-11-27T03:20:00.841Z,0.75
2022-11-27T03:22:28.194Z,0.90
2022-11-27T03:24:55.254Z,1.65
2022-11-27T03:27:29.753Z,2.33
2022-11-27T03:30:06.864Z,2.05
2022-11-27T03:32:34.771Z,2.30
2022-11-27T03:35:01.684Z,1.67
2022-11-27T03:37:28.648Z,2.20
2022-11-27T03:40:13.973Z,2.28
2022-11-27T03:43:06.207Z,1.70
2022-11-27T03:45:48.681Z,1.85
2022-11-27T03:48:33.204Z,1.70
2022-11-27T03:51:08.976Z,2.42
2022-11-27T03:53:41.936Z,2.55
2022-11-27T03:56:37.705Z,1.65
2022-11-27T03:59:13.371Z,2.22
2022-11-27T04:01:40.947Z,2.55
2022-11-27T04:04:26.611Z,2.08
2022-11-27T04:06:53.370Z,2.85
2022-11-27T04:09:20.201Z,1.58
2022-11-27T04:12:05.721Z,2.25
2022-11-27T04:14:32.572Z,2.00
2022-11-27T04:16:59.605Z,2.65
2022-11-27T04:19:26.333Z,1.92
2022-11-27T04:21:53.066Z,2.45
2022-11-27T04:24:39.224Z,2.00
2022-11-27T04:27:06.137Z,2.72
2022-11-27T04:29:32.888Z,2.80
2022-11-27T04:31:59.713Z,2.50
2022-11-27T04:34:26.522Z,3.15
2022-11-27T04:36:53.326Z,2.85
2022-11-27T04:39:20.248Z,2.72
2022-11-27T04:41:47.164Z,3.78
2022-11-27T04:44:14.026Z,3.58
2022-11-27T04:46:59.945Z,3.70
2022-11-27T04:49:26.798Z,3.40
2022-11-27T04:51:53.612Z,3.53
2022-11-27T04:57:04.940Z,4.55
2022-11-27T04:59:31.745Z,4.50
2022-11-27T05:01:58.899Z,4.30
2022-11-27T05:04:25.791Z,4.93
2022-11-27T05:06:52.647Z,3.95
2022-11-27T05:09:19.438Z,4.00
2022-11-27T05:11:46.424Z,5.32
2022-11-27T05:14:17.078Z,4.93
2022-11-27T05:16:50.344Z,4.85
2022-11-27T05:19:18.248Z,4.53
2022-11-27T05:21:46.368Z,3.65
2022-11-27T05:24:13.997Z,4.40
2022-11-27T05:26:41.289Z,5.82
2022-11-27T05:29:09.441Z,3.80
2022-11-27T05:31:36.818Z,4.40
2022-11-27T05:34:23.341Z,4.28
2022-11-27T05:36:50.193Z,4.70
2022-11-27T05:39:17.304Z,4.97
2022-11-27T05:41:44.153Z,4.63
2022-11-27T05:44:15.310Z,3.25
2022-11-27T05:46:46.024Z,3.33
2022-11-27T05:49:14.196Z,3.88
2022-11-27T05:51:44.198Z,4.07
2022-11-27T05:54:34.595Z,4.60
2022-11-27T05:57:01.497Z,3.50
2022-11-27T05:59:28.209Z,5.13
2022-11-27T06:01:55.082Z,4.38
2022-11-27T06:04:21.881Z,3.60
2022-11-27T06:06:48.657Z,3.97
2022-11-27T06:09:15.455Z,3.72
2022-11-27T06:11:42.765Z,3.50
2022-11-27T06:14:10.945Z,3.65
2022-11-27T06:16:38.335Z,3.75
2022-11-27T06:19:05.162Z,4.60
2022-11-27T06:21:31.968Z,3.58
2022-11-27T06:23:59.008Z,4.65
2022-11-27T06:26:29.121Z,3.33
2022-11-27T06:28:57.519Z,4.63
2022-11-27T06:31:45.257Z,3.17
2022-11-27T06:34:12.521Z,3.35
2022-11-27T06:36:40.902Z,4.47
2022-11-27T06:39:10.145Z,4.25
2022-11-27T06:41:36.862Z,3.92
2022-11-27T06:44:04.372Z,3.53
2022-11-27T06:46:31.149Z,4.05
2022-11-27T06:48:58.931Z,2.65
2022-11-27T06:51:28.061Z,3.08
2022-11-27T06:54:32.540Z,3.83
2022-11-27T06:56:59.420Z,3.40
2022-11-27T06:59:26.134Z,3.45
2022-11-27T07:01:53.093Z,3.17
2022-11-27T07:04:20.010Z,3.38
2022-11-27T07:06:46.869Z,4.93
2022-11-27T07:09:13.831Z,3.05
2022-11-27T07:11:40.684Z,3.55
2022-11-27T07:14:07.803Z,3.88
2022-11-27T07:16:36.482Z,3.72
2022-11-27T07:19:06.865Z,3.83
2022-11-27T07:21:34.223Z,3.95
2022-11-27T07:24:01.338Z,4.18
2022-11-27T07:26:30.062Z,3.38
2022-11-27T07:28:57.064Z,3.92
2022-11-27T07:31:28.163Z,3.90
2022-11-27T07:34:21.097Z,3.42
2022-11-27T07:36:48.437Z,3.17
2022-11-27T07:39:25.164Z,4.05
2022-11-27T07:42:16.772Z,4.07
2022-11-27T07:44:48.117Z,4.25
2022-11-27T07:47:14.856Z,3.72
2022-11-27T07:49:41.706Z,4.28
2022-11-27T07:52:08.488Z,5.63
2022-11-27T07:54:36.183Z,3.63
2022-11-27T07:57:02.889Z,3.05
2022-11-27T07:59:29.919Z,3.97
2022-11-27T08:02:14.953Z,5.03
2022-11-27T08:04:42.259Z,4.43
2022-11-27T08:07:09.265Z,4.43
2022-11-27T08:09:36.119Z,4.38
2022-11-27T08:12:02.992Z,4.82
2022-11-27T08:14:30.100Z,4.63
2022-11-27T08:16:56.880Z,3.35
2022-11-27T08:19:23.768Z,4.80
2022-11-27T08:21:51.113Z,3.33
2022-11-27T08:24:17.884Z,3.80
2022-11-27T08:26:44.613Z,3.92
2022-11-27T08:29:12.465Z,4.43
2022-11-27T08:34:23.709Z,3.17
2022-11-27T08:36:50.684Z,3.85
2022-11-27T08:39:17.554Z,4.28
2022-11-27T08:41:44.562Z,3.40
2022-11-27T08:44:11.368Z,4.57
2022-11-27T08:47:16.906Z,4.65
2022-11-27T08:49:46.215Z,4.57
2022-11-27T08:52:32.119Z,3.40
2022-11-27T08:54:59.231Z,3.95
2022-11-27T08:57:26.064Z,5.15
2022-11-27T08:59:52.927Z,5.03
2022-11-27T09:02:19.865Z,3.60
2022-11-27T09:04:46.700Z,4.05
2022-11-27T09:07:15.909Z,3.35
2022-11-27T09:09:43.078Z,4.35
2022-11-27T09:12:09.830Z,4.82
2022-11-27T09:14:36.660Z,4.60
2022-11-27T09:17:03.571Z,5.00
2022-11-27T09:19:30.476Z,4.35
2022-11-27T09:21:57.302Z,4.38
2022-11-27T09:24:24.930Z,4.63
2022-11-27T09:26:51.818Z,4.97
2022-11-27T09:32:03.615Z,4.82
2022-11-27T09:34:34.620Z,4.05
2022-11-27T09:37:05.019Z,5.15
2022-11-27T09:39:34.013Z,5.28
2022-11-27T09:42:04.296Z,5.22
2022-11-27T09:44:45.353Z,4.88
2022-11-27T09:48:03.069Z,4.82
2022-11-27T09:50:35.085Z,5.95
2022-11-27T09:53:12.987Z,5.18
2022-11-27T09:56:03.427Z,4.82
2022-11-27T09:58:39.839Z,4.47
2022-11-27T10:01:18.497Z,6.13
2022-11-27T10:03:46.575Z,4.95
2022-11-27T10:06:32.288Z,4.68
2022-11-27T10:12:34.837Z,5.30
2022-11-27T10:15:16.916Z,6.15
2022-11-27T10:17:54.179Z,5.97
2022-11-27T10:20:29.062Z,4.55
2022-11-27T10:23:14.500Z,4.63
2022-11-27T10:25:48.196Z,4.55
2022-11-27T10:28:26.981Z,4.20
2022-11-27T10:31:18.662Z,4.43
2022-11-27T10:33:55.921Z,4.97
2022-11-27T10:36:50.705Z,4.63
2022-11-27T10:39:48.248Z,4.60
2022-11-27T10:42:33.336Z,5.47
2022-11-27T10:45:05.324Z,6.28
2022-11-27T10:50:18.754Z,4.50
2022-11-27T10:53:00.107Z,5.07
2022-11-27T10:56:04.462Z,5.15
2022-11-27T10:58:37.648Z,3.75
2022-11-27T11:01:09.508Z,5.18
2022-11-27T11:04:24.213Z,4.65
2022-11-27T11:06:53.050Z,3.78
2022-11-27T11:09:27.217Z,4.65
2022-11-27T11:11:54.184Z,5.10
2022-11-27T11:14:26.736Z,3.95
2022-11-27T11:19:39.309Z,3.72
2022-11-27T11:22:14.786Z,3.75
2022-11-27T11:24:50.009Z,3.85
2022-11-27T11:27:25.334Z,4.22
2022-11-27T11:29:56.576Z,4.47
2022-11-27T11:32:26.916Z,4.20
2022-11-27T11:35:00.785Z,5.15
2022-11-27T11:37:46.906Z,3.55
2022-11-27T11:40:16.240Z,4.75
2022-11-27T11:42:54.204Z,4.85
2022-11-27T11:45:22.567Z,5.10
2022-11-27T11:47:52.184Z,3.80
2022-11-27T11:50:42.976Z,4.53
2022-11-27T11:53:31.655Z,4.47
2022-11-27T11:56:04.124Z,4.15
2022-11-27T11:58:53.921Z,4.40
2022-11-27T12:01:29.139Z,4.45
2022-11-27T12:04:02.308Z,3.85
2022-11-27T12:06:39.577Z,3.45
2022-11-27T12:09:18.118Z,4.13
2022-11-27T12:12:34.261Z,4.60
2022-11-27T12:15:04.885Z,3.28
2022-11-27T12:17:47.967Z,4.68
2022-11-27T12:20:41.131Z,3.72
2022-11-27T12:23:35.749Z,3.00
2022-11-27T12:26:14.357Z,3.80
2022-11-27T12:29:04.395Z,4.00
2022-11-27T12:32:04.560Z,4.20
2022-11-27T12:34:43.514Z,3.75
2022-11-27T12:37:51.898Z,3.33
2022-11-27T12:40:49.851Z,4.60
2022-11-27T12:43:32.241Z,3.90
2022-11-27T12:46:18.914Z,3.38
2022-11-27T12:48:58.806Z,3.22
2022-11-27T12:51:49.453Z,3.67
2022-11-27T12:54:42.789Z,3.08
2022-11-27T12:57:17.032Z,4.47
2022-11-27T12:59:51.400Z,3.15
2022-11-27T13:02:18.439Z,3.15
2022-11-27T13:04:48.091Z,4.03
2022-11-27T13:07:23.230Z,4.65
2022-11-27T13:10:29.459Z,3.45
2022-11-27T13:13:25.566Z,2.72
2022-11-27T13:16:15.489Z,3.53
2022-11-27T13:18:58.101Z,3.38
2022-11-27T13:21:29.368Z,4.50
2022-11-27T13:24:15.732Z,3.75
2022-11-27T13:27:13.770Z,2.72
2022-11-27T13:30:09.232Z,3.42
2022-11-27T13:32:40.461Z,3.92
2022-11-27T13:35:20.500Z,3.55
2022-11-27T13:37:49.989Z,3.72
2022-11-27T13:40:21.928Z,3.42
2022-11-27T13:42:55.148Z,4.93
2022-11-27T13:45:32.683Z,3.30
2022-11-27T13:48:02.612Z,3.45
2022-11-27T13:50:31.623Z,2.53
2022-11-27T13:53:17.549Z,3.85
2022-11-27T13:55:56.782Z,3.47
2022-11-27T13:58:35.612Z,3.83
2022-11-27T14:01:15.018Z,2.85
2022-11-27T14:03:42.540Z,3.90
2022-11-27T14:06:26.260Z,3.83
2022-11-27T14:09:02.631Z,3.90
2022-11-27T14:11:49.694Z,5.55
2022-11-27T14:14:22.905Z,2.80
2022-11-27T14:17:04.841Z,3.95
2022-11-27T14:19:43.769Z,3.67
2022-11-27T14:22:30.740Z,4.40
2022-11-27T14:24:57.639Z,3.55
2022-11-27T14:27:26.836Z,3.33
2022-11-27T14:30:51.829Z,4.80
2022-11-27T14:34:07.464Z,3.53
2022-11-27T14:36:34.799Z,3.63
2022-11-27T14:39:02.473Z,4.03
2022-11-27T14:42:07.937Z,3.67
2022-11-27T14:45:07.924Z,3.78
2022-11-27T14:47:35.743Z,4.25
2022-11-27T14:50:21.959Z,3.20
2022-11-27T14:52:56.563Z,3.28
2022-11-27T14:55:24.022Z,4.10
2022-11-27T14:57:51.720Z,4.90
2022-11-27T15:00:24.589Z,3.78
2022-11-27T15:03:10.995Z,4.03
2022-11-27T15:05:39.117Z,4.13
2022-11-27T15:08:10.500Z,4.07
2022-11-27T15:10:58.779Z,4.50
2022-11-27T15:13:29.651Z,4.70
2022-11-27T15:16:34.357Z,4.30
2022-11-27T15:19:05.131Z,4.47
2022-11-27T15:21:37.976Z,4.10
2022-11-27T15:24:04.941Z,3.72
2022-11-27T15:26:39.889Z,5.55
2022-11-27T15:32:27.294Z,5.47
2022-11-27T15:34:54.904Z,4.57
2022-11-27T15:37:41.454Z,5.18
2022-11-27T15:40:24.513Z,3.90
2022-11-27T15:42:51.375Z,4.40
2022-11-27T15:45:18.608Z,5.15
2022-11-27T15:48:04.558Z,4.78
2022-11-27T15:50:31.926Z,5.03
2022-11-27T15:53:00.939Z,3.65
2022-11-27T15:55:28.225Z,4.20
2022-11-27T15:57:54.969Z,4.93
2022-11-27T16:00:22.244Z,6.32
2022-11-27T16:02:49.154Z,4.40
2022-11-27T16:05:16.064Z,5.00
2022-11-27T16:07:42.805Z,4.47
2022-11-27T16:10:10.941Z,4.70
2022-11-27T16:12:39.013Z,4.90
2022-11-27T16:15:07.617Z,3.20
2022-11-27T16:17:34.729Z,5.47
2022-11-27T16:20:01.765Z,3.78
2022-11-27T16:22:28.572Z,5.43
2022-11-27T16:24:55.417Z,5.45
2022-11-27T16:27:22.190Z,5.13
2022-11-27T16:29:49.282Z,6.57
2022-11-27T16:37:45.679Z,8.63
2022-11-27T16:40:31.648Z,9.43
2022-11-27T16:42:58.604Z,9.10
2022-11-27T16:45:44.354Z,7.38
2022-11-27T16:48:11.362Z,6.72
2022-11-27T16:50:38.533Z,5.45
2022-11-27T16:53:05.516Z,5.97
2022-11-27T16:55:33.262Z,6.40
2022-11-27T16:58:00.180Z,6.60
2022-11-27T17:00:29.068Z,5.70
2022-11-27T17:03:14.797Z,6.72
2022-11-27T17:05:47.526Z,6.97
2022-11-27T17:08:17.021Z,5.68
2022-11-27T17:10:45.336Z,4.70
2022-11-27T17:13:12.113Z,5.30
2022-11-27T17:15:40.681Z,6.78
2022-11-27T17:18:09.989Z,7.25
2022-11-27T17:20:37.155Z,6.60
2022-11-27T17:23:03.961Z,5.03
2022-11-27T17:25:31.013Z,5.55
2022-11-27T17:28:16.560Z,8.13
2022-11-27T17:31:01.856Z,6.45
2022-11-27T17:33:47.721Z,5.82
2022-11-27T17:36:15.741Z,5.63
2022-11-27T17:38:42.642Z,4.97
2022-11-27T17:41:11.910Z,6.35
2022-11-27T17:43:39.669Z,5.85
2022-11-27T17:46:11.347Z,5.63
2022-11-27T17:48:38.985Z,6.55
2022-11-27T17:51:06.579Z,6.60
2022-11-27T17:53:33.972Z,7.03
2022-11-27T17:56:10.123Z,6.40
2022-11-27T17:58:37.679Z,5.13
2022-11-27T18:01:25.210Z,6.80
2022-11-27T18:03:55.396Z,7.10
2022-11-27T18:06:42.474Z,5.97
2022-11-27T18:09:09.363Z,5.85
2022-11-27T18:11:36.105Z,6.07
2022-11-27T18:14:04.137Z,5.35
2022-11-27T18:16:37.062Z,6.97
2022-11-27T18:19:26.117Z,6.47
2022-11-27T18:21:52.892Z,6.72
2022-11-27T18:24:41.850Z,7.03
2022-11-27T18:27:09.456Z,5.80
2022-11-27T18:29:38.855Z,6.43
2022-11-27T18:32:06.580Z,5.60
2022-11-27T18:34:33.780Z,6.03
2022-11-27T18:40:23.637Z,5.82
2022-11-27T18:43:09.284Z,6.75
2022-11-27T18:45:36.184Z,5.32
2022-11-27T18:48:22.497Z,6.13
2022-11-27T18:51:07.753Z,6.03
2022-11-27T18:53:53.515Z,6.32
2022-11-27T18:56:25.547Z,4.07
2022-11-27T18:58:53.901Z,5.68
2022-11-27T19:01:30.044Z,5.70
2022-11-27T19:04:17.140Z,5.38
2022-11-27T19:06:44.783Z,5.55
2022-11-27T19:09:13.484Z,5.97
2022-11-27T19:11:41.653Z,4.90
2022-11-27T19:14:09.146Z,6.75
2022-11-27T19:16:54.556Z,4.85
2022-11-27T19:22:28.511Z,7.72
2022-11-27T19:24:58.123Z,6.05
2022-11-27T19:27:24.875Z,6.13
2022-11-27T19:29:52.081Z,5.70
2022-11-27T19:32:19.043Z,6.55
2022-11-27T19:34:46.293Z,5.10
2022-11-27T19:37:13.144Z,5.85
2022-11-27T19:39:58.524Z,5.72
2022-11-27T19:42:44.042Z,5.18
2022-11-27T19:45:10.950Z,4.72
2022-11-27T19:53:48.245Z,4.18
2022-11-27T19:56:15.049Z,4.45
2022-11-27T19:58:42.829Z,5.72
2022-11-27T20:01:16.989Z,6.13
2022-11-27T20:03:44.285Z,5.80
2022-11-27T20:06:14.416Z,6.15
2022-11-27T20:14:15.151Z,5.00
2022-11-27T20:16:42.994Z,5.90
2022-11-27T20:25:18.387Z,5.80
2022-11-27T20:27:45.626Z,5.80
2022-11-27T20:30:13.383Z,5.65
2022-11-27T20:32:40.267Z,5.63
2022-11-27T20:35:07.659Z,6.00
2022-11-27T20:37:35.068Z,5.72
2022-11-27T20:40:02.028Z,5.60
2022-11-27T20:42:29.389Z,5.63
2022-11-27T20:45:20.032Z,5.97
2022-11-27T20:50:34.622Z,5.72
2022-11-27T20:53:03.725Z,4.93
2022-11-27T20:55:49.649Z,4.97
2022-11-27T20:58:35.143Z,5.82
2022-11-27T21:01:41.233Z,5.70
2022-11-27T21:04:19.523Z,6.53
2022-11-27T21:06:47.176Z,6.65
2022-11-27T21:09:14.336Z,5.25
2022-11-27T21:11:43.652Z,5.82
2022-11-27T21:14:13.844Z,5.68
2022-11-27T21:16:45.013Z,4.45
2022-11-27T21:19:16.764Z,4.40
2022-11-27T21:21:44.331Z,4.97
2022-11-27T21:24:11.937Z,4.00
2022-11-27T21:26:40.225Z,4.65
2022-11-27T21:29:08.344Z,6.13
2022-11-27T21:31:37.657Z,6.53
2022-11-27T21:34:06.826Z,4.85
2022-11-27T21:36:36.356Z,5.43
2022-11-27T21:39:06.478Z,5.78
2022-11-27T21:41:33.352Z,3.88
2022-11-27T21:44:01.731Z,5.97
2022-11-27T21:49:19.899Z,5.22
2022-11-27T21:51:50.027Z,4.80
2022-11-27T21:54:18.878Z,5.72
2022-11-27T21:56:45.778Z,5.43
2022-11-27T21:59:14.195Z,4.53
2022-11-27T22:01:41.206Z,6.65
2022-11-27T22:04:27.695Z,5.05
2022-11-27T22:07:13.454Z,5.88
2022-11-27T22:12:24.787Z,5.13
2022-11-27T22:14:51.649Z,5.45
2022-11-27T22:17:19.249Z,4.53
2022-11-27T22:19:46.025Z,6.25
2022-11-27T22:24:58.769Z,5.65
2022-11-27T22:27:26.107Z,5.78
2022-11-27T22:29:52.977Z,5.10
2022-11-27T22:32:20.064Z,4.97
2022-11-27T22:34:47.502Z,5.30
2022-11-27T22:37:14.275Z,5.68
2022-11-27T22:39:43.467Z,3.92
2022-11-27T22:42:10.891Z,5.35
2022-11-27T22:44:38.105Z,6.15
2022-11-27T22:47:04.895Z,4.70
2022-11-27T22:49:32.291Z,5.43
2022-11-27T22:51:59.161Z,4.50
2022-11-27T22:54:44.885Z,5.03
2022-11-27T22:57:13.998Z,4.65
2022-11-27T22:59:59.742Z,3.65
2022-11-27T23:02:27.118Z,4.38
2022-11-27T23:05:12.572Z,3.83
2022-11-27T23:07:39.486Z,4.60
2022-11-27T23:10:07.152Z,4.05
2022-11-27T23:12:33.968Z,4.68
2022-11-27T23:15:00.723Z,5.07
2022-11-27T23:17:27.516Z,4.65
2022-11-27T23:19:54.216Z,5.32
2022-11-27T23:22:20.969Z,5.10
2022-11-27T23:24:47.687Z,5.00
2022-11-27T23:27:14.505Z,5.40
2022-11-27T23:29:41.237Z,5.32
2022-11-27T23:32:26.865Z,4.75
2022-11-27T23:34:53.697Z,4.20
2022-11-27T23:37:20.536Z,5.28
2022-11-27T23:39:47.493Z,5.18
2022-11-27T23:42:14.242Z,3.72
2022-11-27T23:44:42.257Z,4.32
2022-11-27T23:47:09.340Z,4.78
2022-11-27T23:49:36.085Z,5.53
2022-11-27T23:52:22.997Z,5.20
2022-11-27T23:54:49.857Z,5.18
2022-11-27T23:57:16.592Z,5.65
2022-11-27T23:59:43.436Z,4.53
